Time;durP1;ratioP1;P1;durP2;ratioP2;P2;SDS_P1;SDS_P2;PMS_P1;PMS_P2;Temp;Humidity;BMP_temperature;BMP_pressure;BME280_temperature;BME280_humidity;BME280_pressure;Samples;Min_cycle;Max_cycle;Signal;HPM_P1;HPM_P2
2022/06/16 00:00:59;;;;;;;3.05;2.72;;;15.80;99.90;;;;;;5177238;28;20032;-58
2022/06/16 00:03:33;;;;;;;3.20;2.60;;;15.80;99.90;;;;;;5162658;28;20034;-61
2022/06/16 00:06:06;;;;;;;3.33;3.03;;;15.80;99.90;;;;;;5171779;28;20060;-59
2022/06/16 00:08:38;;;;;;;3.20;2.90;;;15.70;99.90;;;;;;5174099;28;20268;-59
2022/06/16 00:11:19;;;;;;;5.05;2.90;;;15.70;99.90;;;;;;5161422;28;20038;-59
2022/06/16 00:13:52;;;;;;;3.58;3.28;;;15.70;99.90;;;;;;5160847;28;20045;-59
2022/06/16 00:16:29;;;;;;;3.03;2.72;;;15.70;99.90;;;;;;5177406;28;20199;-60
2022/06/16 00:19:05;;;;;;;2.70;2.50;;;15.70;99.90;;;;;;5177047;28;20319;-59
2022/06/16 00:21:44;;;;;;;4.57;2.88;;;15.60;99.90;;;;;;5162586;28;20030;-59
2022/06/16 00:24:16;;;;;;;6.32;2.95;;;15.60;99.90;;;;;;5168857;28;20044;-61
2022/06/16 00:26:50;;;;;;;4.88;2.75;;;15.60;99.90;;;;;;5175795;28;20045;-61
2022/06/16 00:29:27;;;;;;;6.97;2.63;;;15.70;99.90;;;;;;5190187;28;20072;-61
2022/06/16 00:31:59;;;;;;;2.90;2.60;;;15.70;99.90;;;;;;5191420;28;20026;-61
2022/06/16 00:34:34;;;;;;;5.43;2.90;;;15.60;99.90;;;;;;5189805;28;20052;-62
2022/06/16 00:37:05;;;;;;;;;;;15.60;99.90;;;;;;5183767;28;20038;-61
2022/06/16 00:39:38;;;;;;;2.65;2.42;;;15.60;99.90;;;;;;5160349;28;19920;-60
2022/06/16 00:42:21;;;;;;;3.30;3.00;;;15.60;99.90;;;;;;5159026;28;20026;-60
2022/06/16 00:45:00;;;;;;;3.78;2.78;;;15.60;99.90;;;;;;5160192;28;20026;-61
2022/06/16 00:47:35;;;;;;;3.47;2.70;;;15.50;99.90;;;;;;5158158;28;20030;-60
2022/06/16 00:50:09;;;;;;;3.63;2.90;;;15.50;99.90;;;;;;5164067;28;20030;-60
2022/06/16 00:52:43;;;;;;;;;;;15.40;99.90;;;;;;5177930;28;20052;-59
2022/06/16 00:55:17;;;;;;;3.42;2.70;;;15.40;99.90;;;;;;5161160;28;19913;-60
2022/06/16 00:57:52;;;;;;;3.33;3.03;;;15.30;99.90;;;;;;5161239;28;20018;-59
2022/06/16 01:00:40;;;;;;;4.93;3.33;;;15.20;99.90;;;;;;5161356;28;20300;-61
2022/06/16 01:06:27;;;;;;;3.50;3.15;;;15.10;99.90;;;;;;5185220;28;20045;-59
2022/06/16 01:09:13;;;;;;;3.05;2.53;;;15.10;99.90;;;;;;5197853;28;20030;-58
2022/06/16 01:15:37;;;;;;;4.28;3.00;;;14.90;99.90;;;;;;5179330;28;20037;-60
2022/06/16 01:18:28;;;;;;;4.32;2.90;;;14.90;99.90;;;;;;5194826;28;20021;-60
2022/06/16 01:21:12;;;;;;;3.58;3.28;;;14.90;99.90;;;;;;5195152;28;20029;-61
2022/06/16 01:24:33;;;;;;;5.13;3.17;;;14.90;99.90;;;;;;5179731;28;20033;-65
2022/06/16 01:27:44;;;;;;;3.40;3.10;;;14.90;99.90;;;;;;5195286;28;20362;-60
2022/06/16 01:30:42;;;;;;;4.40;3.05;;;14.80;99.90;;;;;;5197531;28;20048;-61
2022/06/16 01:33:35;;;;;;;3.25;2.95;;;14.70;99.90;;;;;;5196245;28;20038;-61
2022/06/16 01:36:51;;;;;;;2.97;2.47;;;14.70;99.90;;;;;;5194788;28;20049;-59
2022/06/16 01:39:32;;;;;;;3.58;2.83;;;14.70;99.90;;;;;;5180479;28;20045;-59
2022/06/16 01:42:16;;;;;;;3.28;2.97;;;14.70;99.90;;;;;;5197447;28;20310;-63
2022/06/16 01:45:01;;;;;;;4.88;3.58;;;14.70;99.90;;;;;;5179846;28;20258;-59
2022/06/16 01:47:37;;;;;;;4.32;3.33;;;14.60;99.90;;;;;;5193927;28;20026;-60
2022/06/16 01:50:37;;;;;;;4.68;3.35;;;14.50;99.90;;;;;;5177261;28;20213;-60
2022/06/16 01:53:23;;;;;;;4.18;3.75;;;14.40;99.90;;;;;;5197678;28;20025;-60
2022/06/16 01:56:10;;;;;;;3.70;3.25;;;14.40;99.90;;;;;;5180901;28;20365;-60
2022/06/16 01:58:51;;;;;;;4.10;3.22;;;14.40;99.90;;;;;;5183450;28;20212;-60
2022/06/16 02:01:28;;;;;;;4.38;3.55;;;14.40;99.90;;;;;;5164318;28;20048;-62
2022/06/16 02:04:12;;;;;;;4.18;3.17;;;14.40;99.90;;;;;;5181649;28;20028;-59
2022/06/16 02:06:53;;;;;;;3.55;2.90;;;14.30;99.90;;;;;;5167622;28;20056;-59
2022/06/16 02:09:39;;;;;;;4.95;3.67;;;14.30;99.90;;;;;;5182352;28;20030;-60
2022/06/16 02:12:55;;;;;;;3.80;3.03;;;14.20;99.90;;;;;;5179020;28;20312;-60
2022/06/16 02:15:21;;;;;;;3.90;3.38;;;14.20;99.90;;;;;;5164098;28;20037;-59
2022/06/16 02:17:58;;;;;;;4.97;3.10;;;14.20;99.90;;;;;;5179814;28;20312;-60
2022/06/16 02:21:09;;;;;;;4.35;3.22;;;14.20;99.90;;;;;;5177990;28;20026;-60
2022/06/16 02:23:42;;;;;;;4.15;3.20;;;14.20;99.90;;;;;;5138928;28;20332;-60
2022/06/16 02:26:17;;;;;;;3.17;2.72;;;14.10;99.90;;;;;;5156886;28;20042;-61
2022/06/16 02:28:57;;;;;;;4.95;3.78;;;14.20;99.90;;;;;;5156533;28;20055;-61
2022/06/16 02:31:47;;;;;;;4.13;3.60;;;14.10;99.90;;;;;;5141980;28;20053;-62
2022/06/16 02:34:31;;;;;;;4.82;3.22;;;14.10;99.90;;;;;;5123410;28;20081;-61
2022/06/16 02:37:28;;;;;;;5.45;3.42;;;14.10;99.90;;;;;;5126520;28;20062;-60
2022/06/16 02:40:23;;;;;;;4.35;3.60;;;14.20;99.90;;;;;;5139331;28;20046;-60
2022/06/16 02:43:11;;;;;;;4.60;3.80;;;14.20;99.90;;;;;;5123304;28;20149;-60
2022/06/16 02:46:02;;;;;;;4.05;3.63;;;14.10;99.90;;;;;;5123884;28;20411;-61
2022/06/16 02:48:51;;;;;;;5.15;4.00;;;14.10;99.90;;;;;;5141769;28;20204;-61
2022/06/16 02:51:45;;;;;;;4.18;3.78;;;14.10;99.90;;;;;;5123927;28;20035;-60
2022/06/16 02:54:41;;;;;;;4.55;4.07;;;14.10;99.90;;;;;;5111804;28;20046;-59
2022/06/16 02:57:32;;;;;;;6.22;3.72;;;14.10;99.90;;;;;;5140601;28;20521;-60
2022/06/16 03:00:16;;;;;;;4.63;3.42;;;14.00;99.90;;;;;;5149763;28;20048;-62
2022/06/16 03:02:48;;;;;;;2.97;2.53;;;14.00;99.90;;;;;;5179387;28;20032;-60
2022/06/16 03:05:26;;;;;;;5.10;4.10;;;14.00;99.90;;;;;;5149230;28;20053;-60
2022/06/16 03:08:00;;;;;;;5.20;3.75;;;14.00;99.90;;;;;;5170011;28;20288;-61
2022/06/16 03:10:50;;;;;;;8.13;4.22;;;14.10;99.90;;;;;;5175204;28;20046;-63
2022/06/16 03:13:28;;;;;;;7.40;3.88;;;14.10;99.90;;;;;;5172845;28;20036;-59
2022/06/16 03:16:11;;;;;;;6.00;3.63;;;14.10;99.90;;;;;;5159448;28;20037;-61
2022/06/16 03:18:44;;;;;;;5.72;4.00;;;14.10;99.90;;;;;;5158918;28;20038;-60
2022/06/16 03:21:21;;;;;;;5.40;4.32;;;14.20;99.90;;;;;;5157719;28;20023;-61
2022/06/16 03:24:04;;;;;;;4.63;3.85;;;14.30;99.90;;;;;;5174302;28;20030;-60
2022/06/16 03:26:40;;;;;;;3.55;3.20;;;14.40;99.90;;;;;;5166606;28;20040;-61
2022/06/16 03:29:14;;;;;;;4.45;3.80;;;14.60;99.90;;;;;;5163180;28;20052;-62
2022/06/16 03:31:48;;;;;;;4.65;3.40;;;14.70;99.90;;;;;;5163275;28;20034;-61
2022/06/16 03:34:23;;;;;;;3.88;3.47;;;14.80;99.90;;;;;;5176409;28;20034;-61
2022/06/16 03:37:03;;;;;;;6.40;3.83;;;14.80;99.90;;;;;;5175627;28;20026;-62
2022/06/16 03:39:35;;;;;;;3.55;3.22;;;14.90;99.90;;;;;;5161077;28;20098;-63
2022/06/16 03:42:06;;;;;;;6.32;3.30;;;15.10;99.90;;;;;;5174849;28;20045;-62
2022/06/16 03:44:38;;;;;;;6.25;3.45;;;15.20;99.90;;;;;;5176571;28;20042;-62
2022/06/16 03:47:14;;;;;;;5.45;3.53;;;15.40;99.90;;;;;;5176878;28;20041;-62
2022/06/16 03:49:45;;;;;;;4.72;3.10;;;15.50;99.90;;;;;;5172809;28;20235;-62
2022/06/16 03:52:22;;;;;;;4.03;2.92;;;15.60;99.90;;;;;;5142429;28;20026;-61
2022/06/16 03:54:54;;;;;;;3.80;3.13;;;15.80;99.90;;;;;;5156802;28;20308;-62
2022/06/16 03:57:25;;;;;;;5.50;2.95;;;16.00;99.90;;;;;;5166775;28;20037;-63
2022/06/16 04:00:02;;;;;;;4.30;3.08;;;16.40;99.90;;;;;;5162148;28;20048;-63
2022/06/16 04:02:36;;;;;;;3.67;3.03;;;16.70;99.90;;;;;;5159996;28;20392;-62
2022/06/16 04:05:14;;;;;;;2.53;2.30;;;16.80;99.90;;;;;;5168133;28;20046;-63
2022/06/16 04:07:51;;;;;;;3.13;2.40;;;16.90;99.90;;;;;;5159477;28;20040;-62
2022/06/16 04:10:23;;;;;;;4.38;3.17;;;17.00;99.90;;;;;;5158031;28;20448;-63
2022/06/16 04:12:54;;;;;;;3.10;2.47;;;17.10;99.90;;;;;;5177969;28;20042;-63
2022/06/16 04:15:31;;;;;;;4.72;3.28;;;17.20;99.90;;;;;;5174398;28;20038;-62
2022/06/16 04:18:03;;;;;;;5.03;2.58;;;17.50;99.90;;;;;;5163489;28;20392;-63
2022/06/16 04:20:35;;;;;;;3.20;2.78;;;17.80;99.90;;;;;;5177714;28;20113;-62
2022/06/16 04:23:11;;;;;;;3.05;2.55;;;18.00;99.90;;;;;;5160929;28;20217;-61
2022/06/16 04:25:43;;;;;;;4.82;2.78;;;18.30;99.90;;;;;;5161375;28;20034;-62
2022/06/16 04:28:16;;;;;;;3.85;2.40;;;18.30;99.90;;;;;;5174397;28;20315;-61
2022/06/16 04:30:47;;;;;;;2.97;2.50;;;18.30;99.90;;;;;;5176106;28;20030;-62
2022/06/16 04:33:21;;;;;;;2.88;2.58;;;18.40;99.90;;;;;;5159692;28;20502;-63
2022/06/16 04:35:55;;;;;;;3.03;2.30;;;18.70;99.90;;;;;;5162340;28;20358;-62
2022/06/16 04:38:29;;;;;;;2.63;2.43;;;19.00;99.90;;;;;;5177618;28;20031;-61
2022/06/16 04:41:01;;;;;;;3.05;2.20;;;19.30;99.90;;;;;;5176069;28;20040;-61
2022/06/16 04:43:33;;;;;;;3.92;2.60;;;19.60;99.90;;;;;;5157718;28;20037;-62
2022/06/16 04:46:08;;;;;;;2.70;2.47;;;19.90;99.90;;;;;;5162550;28;20031;-61
2022/06/16 04:48:44;;;;;;;2.78;2.50;;;20.20;99.90;;;;;;5172151;28;20038;-60
2022/06/16 04:51:16;;;;;;;2.90;1.98;;;20.30;99.90;;;;;;5157921;28;20341;-60
2022/06/16 04:53:47;;;;;;;2.92;2.63;;;20.50;99.90;;;;;;5174597;28;20040;-61
2022/06/16 04:56:22;;;;;;;3.00;2.53;;;20.60;99.90;;;;;;5175911;28;20034;-61
2022/06/16 04:58:53;;;;;;;3.25;2.47;;;20.70;99.90;;;;;;5160899;28;20026;-60
2022/06/16 05:01:25;;;;;;;3.10;2.80;;;20.80;99.90;;;;;;5173540;28;20323;-63
2022/06/16 05:03:56;;;;;;;6.20;2.53;;;20.90;99.90;;;;;;5173178;28;20022;-62
2022/06/16 05:06:27;;;;;;;3.13;2.35;;;20.80;99.90;;;;;;5161153;28;20061;-62
2022/06/16 05:08:59;;;;;;;4.00;3.10;;;20.70;99.90;;;;;;5157975;28;20033;-61
2022/06/16 05:11:31;;;;;;;4.43;2.47;;;21.00;99.90;;;;;;5150410;28;20027;-62
2022/06/16 05:14:07;;;;;;;3.10;2.67;;;21.50;99.90;;;;;;5160128;28;20060;-60
2022/06/16 05:16:38;;;;;;;5.13;2.92;;;21.80;99.90;;;;;;5176734;28;20084;-61
2022/06/16 05:19:11;;;;;;;4.93;3.13;;;22.00;99.90;;;;;;5172389;28;20247;-61
2022/06/16 05:21:43;;;;;;;3.40;3.03;;;22.30;99.90;;;;;;5152599;28;20338;-61
2022/06/16 05:24:17;;;;;;;4.90;3.53;;;22.10;99.90;;;;;;5157243;28;20219;-61
2022/06/16 05:26:49;;;;;;;3.30;2.95;;;22.20;99.90;;;;;;5172346;28;20041;-62
2022/06/16 05:29:24;;;;;;;3.53;3.10;;;22.40;99.90;;;;;;5171304;28;20042;-62
2022/06/16 05:31:55;;;;;;;5.10;3.15;;;22.50;99.90;;;;;;5153383;28;20568;-61
2022/06/16 05:34:27;;;;;;;4.65;2.78;;;22.60;99.90;;;;;;5173506;28;20042;-61
2022/06/16 05:37:02;;;;;;;4.80;3.17;;;22.70;99.90;;;;;;5172835;28;20038;-62
2022/06/16 05:39:33;;;;;;;6.50;3.58;;;22.60;99.90;;;;;;5171949;28;20291;-62
2022/06/16 05:42:05;;;;;;;5.80;3.38;;;22.90;99.90;;;;;;5157034;28;20567;-62
2022/06/16 05:44:37;;;;;;;4.05;3.58;;;23.20;99.90;;;;;;5134979;28;20193;-62
2022/06/16 05:47:11;;;;;;;4.30;3.70;;;23.20;99.90;;;;;;5156986;28;20042;-61
2022/06/16 05:49:44;;;;;;;3.67;3.20;;;23.10;99.90;;;;;;5155773;28;20026;-64
2022/06/16 05:52:20;;;;;;;4.15;2.80;;;23.00;99.90;;;;;;5162423;28;20361;-61
2022/06/16 05:54:51;;;;;;;4.57;3.58;;;23.20;99.90;;;;;;5170702;28;20029;-61
2022/06/16 05:57:26;;;;;;;5.65;4.10;;;23.50;99.90;;;;;;5169738;28;20342;-62
2022/06/16 05:59:58;;;;;;;5.07;3.88;;;23.60;99.90;;;;;;5134373;28;20038;-62
2022/06/16 06:02:29;;;;;;;3.85;3.50;;;23.70;99.90;;;;;;5161428;28;20057;-62
2022/06/16 06:05:07;;;;;;;3.40;2.88;;;23.90;99.90;;;;;;5150035;28;20050;-61
2022/06/16 06:16:35;;;;;;;4.50;3.45;;;25.70;99.90;;;;;;5168286;28;20033;-62
2022/06/16 06:19:26;;;;;;;3.25;2.88;;;25.70;99.90;;;;;;5161035;28;20050;-62
2022/06/16 06:22:13;;;;;;;2.60;2.40;;;26.10;99.90;;;;;;5155435;28;20056;-62
2022/06/16 06:25:01;;;;;;;3.70;2.67;;;26.30;99.90;;;;;;5172094;28;20042;-61
2022/06/16 06:27:37;;;;;;;3.05;2.50;;;26.20;99.90;;;;;;5159461;28;20052;-62
2022/06/16 06:30:20;;;;;;;2.92;2.65;;;26.20;99.90;;;;;;5157254;28;20042;-62
2022/06/16 06:32:54;;;;;;;4.07;2.97;;;26.10;99.90;;;;;;5173173;28;20030;-62
2022/06/16 06:35:30;;;;;;;4.88;2.83;;;26.20;99.90;;;;;;5163494;28;20049;-61
2022/06/16 06:38:02;;;;;;;3.33;2.55;;;26.20;99.90;;;;;;5161241;28;20034;-61
2022/06/16 06:40:39;;;;;;;3.85;2.72;;;26.30;99.90;;;;;;5158681;28;20030;-62
2022/06/16 06:43:13;;;;;;;3.65;2.38;;;26.50;99.90;;;;;;5174588;28;20030;-61
2022/06/16 06:45:50;;;;;;;3.60;2.40;;;26.70;99.90;;;;;;5159015;28;20045;-60
2022/06/16 06:48:27;;;;;;;7.45;2.58;;;27.00;99.90;;;;;;5174045;28;20030;-62
2022/06/16 06:51:01;;;;;;;2.45;2.25;;;26.90;99.90;;;;;;5173462;28;20319;-62
2022/06/16 06:53:36;;;;;;;2.80;2.58;;;27.50;99.90;;;;;;5173285;28;20022;-61
2022/06/16 06:56:18;;;;;;;3.30;2.67;;;27.60;99.90;;;;;;5157796;28;20026;-61
2022/06/16 06:58:55;;;;;;;3.50;2.28;;;28.00;99.90;;;;;;5168432;28;20296;-61
2022/06/16 07:01:32;;;;;;;3.35;2.40;;;28.40;99.90;;;;;;5156384;28;20042;-63
2022/06/16 07:04:03;;;;;;;3.40;2.80;;;28.50;99.90;;;;;;5172473;28;20401;-63
2022/06/16 07:06:40;;;;;;;2.50;2.30;;;28.40;99.90;;;;;;5162593;28;20046;-61
2022/06/16 07:09:21;;;;;;;2.65;2.40;;;28.50;99.90;;;;;;5154465;28;20034;-63
2022/06/16 07:11:55;;;;;;;4.18;2.85;;;28.00;99.90;;;;;;5161714;28;20072;-62
2022/06/16 07:14:30;;;;;;;3.22;2.55;;;28.30;99.90;;;;;;5179506;28;20034;-61
2022/06/16 07:17:07;;;;;;;2.50;2.25;;;28.30;99.90;;;;;;5176167;28;20038;-62
2022/06/16 07:19:44;;;;;;;3.10;2.80;;;28.40;99.90;;;;;;5160233;28;20026;-62
2022/06/16 07:22:18;;;;;;;2.70;2.35;;;28.50;99.90;;;;;;5158779;28;20042;-62
2022/06/16 07:24:54;;;;;;;4.77;2.40;;;28.40;99.90;;;;;;5177282;28;20041;-63
2022/06/16 07:27:30;;;;;;;2.45;2.25;;;28.70;99.90;;;;;;5158441;28;20256;-62
2022/06/16 07:30:13;;;;;;;4.30;2.33;;;28.90;99.90;;;;;;5159925;28;20330;-62
2022/06/16 07:32:50;;;;;;;3.47;2.13;;;29.10;99.90;;;;;;5170462;28;20042;-63
2022/06/16 07:35:25;;;;;;;2.47;2.28;;;28.80;99.90;;;;;;5173945;28;20022;-63
2022/06/16 07:37:59;;;;;;;2.90;2.40;;;29.30;99.90;;;;;;5173323;28;20045;-62
2022/06/16 07:40:33;;;;;;;4.53;2.83;;;29.20;99.90;;;;;;5173434;28;20269;-61
2022/06/16 07:43:06;;;;;;;4.57;2.38;;;29.00;99.90;;;;;;5194102;28;20044;-61
2022/06/16 07:45:40;;;;;;;3.53;2.45;;;28.30;99.90;;;;;;5204501;28;20042;-62
2022/06/16 07:48:15;;;;;;;;;;;28.50;99.90;;;;;;5186593;28;20050;-63
2022/06/16 07:50:47;;;;;;;2.55;2.35;;;29.10;99.90;;;;;;5170626;28;19905;-65
2022/06/16 07:53:22;;;;;;;2.97;2.75;;;29.20;99.90;;;;;;5170065;28;20038;-63
2022/06/16 07:56:01;;;;;;;3.13;2.40;;;29.70;99.90;;;;;;5174534;28;20053;-61
2022/06/16 07:58:35;;;;;;;2.55;2.22;;;30.00;99.90;;;;;;5143246;28;20326;-61
2022/06/16 08:01:12;;;;;;;3.15;2.78;;;30.60;99.90;;;;;;5158049;28;20054;-63
2022/06/16 08:03:46;;;;;;;2.72;2.10;;;30.80;99.90;;;;;;5165390;28;20038;-61
2022/06/16 08:06:26;;;;;;;3.08;2.35;;;30.80;99.90;;;;;;5165379;28;20046;-62
2022/06/16 08:09:00;;;;;;;3.53;2.45;;;30.40;99.90;;;;;;5171856;28;20026;-62
2022/06/16 08:14:22;;;;;;;2.58;2.38;;;28.80;99.90;;;;;;5161302;28;20214;-62
2022/06/16 08:16:57;;;;;;;3.00;1.95;;;28.80;99.90;;;;;;5159070;28;20034;-62
2022/06/16 08:19:31;;;;;;;2.67;2.47;;;28.30;99.90;;;;;;5176655;28;20318;-62
2022/06/16 08:22:03;;;;;;;2.63;2.38;;;28.10;99.90;;;;;;5175577;28;20042;-61
2022/06/16 08:24:37;;;;;;;2.50;2.30;;;28.80;99.90;;;;;;5175937;28;20044;-63
2022/06/16 08:27:12;;;;;;;3.47;2.50;;;29.10;99.90;;;;;;5178006;28;20246;-62
2022/06/16 08:29:48;;;;;;;6.05;2.67;;;29.40;99.90;;;;;;5172860;28;20235;-62
2022/06/16 08:32:26;;;;;;;2.42;2.00;;;29.60;99.90;;;;;;5174593;28;20040;-61
2022/06/16 08:35:01;;;;;;;2.60;1.85;;;29.40;99.90;;;;;;5174209;28;20034;-62
2022/06/16 08:37:34;;;;;;;2.95;2.33;;;29.80;99.90;;;;;;5184059;28;20475;-61
2022/06/16 08:40:10;;;;;;;2.67;2.22;;;30.30;99.90;;;;;;5176452;28;20035;-62
2022/06/16 08:42:54;;;;;;;2.42;2.22;;;30.20;99.90;;;;;;5176576;28;20030;-63
2022/06/16 08:45:37;;;;;;;2.90;2.38;;;30.30;99.90;;;;;;5161825;28;20030;-62
2022/06/16 08:48:26;;;;;;;3.28;2.78;;;29.40;99.90;;;;;;5175348;28;20052;-61
2022/06/16 08:51:13;;;;;;;2.20;2.00;;;29.70;99.90;;;;;;5175114;28;20394;-61
2022/06/16 08:54:08;;;;;;;5.30;2.33;;;30.00;99.90;;;;;;5175635;28;20026;-61
2022/06/16 08:57:15;;;;;;;4.70;1.98;;;30.10;99.90;;;;;;5156766;28;20037;-62
2022/06/16 09:00:12;;;;;;;2.42;2.22;;;30.20;99.90;;;;;;5175030;28;20032;-61
2022/06/16 09:03:44;;;;;;;2.53;2.33;;;29.60;99.90;;;;;;5175476;28;20323;-62
2022/06/16 09:06:37;;;;;;;2.63;2.00;;;30.10;99.90;;;;;;5142945;28;20042;-60
2022/06/16 09:10:14;;;;;;;2.72;2.30;;;29.30;99.90;;;;;;5177411;28;20064;-61
2022/06/16 09:12:31;;;;;;;4.05;2.55;;;28.90;99.90;;;;;;5160090;28;20222;-64
2022/06/16 09:15:41;;;;;;;2.60;2.20;;;30.40;99.90;;;;;;5173568;28;20022;-63
2022/06/16 09:18:57;;;;;;;2.50;2.03;;;32.30;99.90;;;;;;5160047;28;20216;-64
2022/06/16 09:21:53;;;;;;;2.10;1.90;;;33.50;99.90;;;;;;5174477;28;20049;-64
2022/06/16 09:24:51;;;;;;;2.10;1.90;;;33.10;99.90;;;;;;5168284;28;20045;-62
2022/06/16 09:27:48;;;;;;;2.17;1.80;;;33.30;99.90;;;;;;5171556;28;20038;-63
2022/06/16 09:30:40;;;;;;;2.55;2.35;;;33.70;99.90;;;;;;5174170;28;20030;-61
2022/06/16 09:33:26;;;;;;;3.80;2.30;;;32.20;99.90;;;;;;5157699;28;20028;-64
2022/06/16 09:36:31;;;;;;;2.83;2.00;;;31.00;99.90;;;;;;5174320;28;20349;-62
2022/06/16 09:39:30;;;;;;;2.58;2.38;;;30.90;99.90;;;;;;5173773;28;20037;-62
2022/06/16 09:45:25;;;;;;;1.90;1.80;;;32.30;99.90;;;;;;5158954;28;20034;-63
2022/06/16 09:48:08;;;;;;;2.60;2.13;;;33.30;99.90;;;;;;5171847;28;20035;-63
2022/06/16 09:51:18;;;;;;;2.10;1.90;;;33.40;99.90;;;;;;5154651;28;20041;-63
2022/06/16 09:54:03;;;;;;;2.33;2.13;;;33.40;99.90;;;;;;5165493;28;20045;-62
2022/06/16 09:57:03;;;;;;;2.30;2.10;;;34.10;99.90;;;;;;5154197;28;20026;-62
2022/06/16 09:59:48;;;;;;;2.70;2.20;;;33.20;99.90;;;;;;5153466;28;20038;-62
2022/06/16 10:02:34;;;;;;;1.92;1.80;;;34.20;99.90;;;;;;5156001;28;20040;-64
2022/06/16 10:05:14;;;;;;;2.65;2.17;;;33.70;99.90;;;;;;5149082;28;20054;-62
2022/06/16 10:08:09;;;;;;;6.07;2.22;;;33.70;99.90;;;;;;5159118;28;20033;-62
2022/06/16 10:10:57;;;;;;;2.30;2.08;;;33.90;99.90;;;;;;5174900;28;20040;-62
2022/06/16 10:13:51;;;;;;;4.75;1.98;;;33.50;99.90;;;;;;5159824;28;20044;-62
2022/06/16 10:16:58;;;;;;;2.10;1.90;;;33.20;99.90;;;;;;5181252;28;20242;-63
2022/06/16 10:19:39;;;;;;;2.25;1.90;;;33.80;99.90;;;;;;5155217;28;20620;-63
2022/06/16 10:22:22;;;;;;;2.50;2.25;;;34.10;99.90;;;;;;5176132;28;20030;-63
2022/06/16 10:25:35;;;;;;;4.22;2.30;;;34.70;99.90;;;;;;5173747;28;20051;-62
2022/06/16 10:28:43;;;;;;;2.15;1.95;;;34.30;99.90;;;;;;5122115;28;20372;-63
2022/06/16 10:31:45;;;;;;;2.00;1.88;;;34.90;99.90;;;;;;5137566;28;20149;-61
2022/06/16 10:34:44;;;;;;;2.83;1.70;;;34.60;99.90;;;;;;5116453;29;20246;-62
2022/06/16 10:37:25;;;;;;;2.55;1.90;;;34.70;99.90;;;;;;5117222;28;20065;-63
2022/06/16 10:40:36;;;;;;;2.13;1.83;;;35.00;99.90;;;;;;5121389;28;20037;-62
2022/06/16 10:43:18;;;;;;;2.05;1.85;;;35.80;99.90;;;;;;5056882;29;20217;-62
2022/06/16 10:46:12;;;;;;;4.55;1.65;;;36.10;99.90;;;;;;5055395;29;20050;-65
2022/06/16 10:48:54;;;;;;;3.95;2.08;;;36.00;99.90;;;;;;5055986;29;20241;-62
2022/06/16 10:51:29;;;;;;;2.08;1.90;;;36.40;99.90;;;;;;5055483;29;20036;-62
2022/06/16 10:54:15;;;;;;;2.38;2.17;;;37.30;99.90;;;;;;5056444;29;20047;-63
2022/06/16 10:56:50;;;;;;;2.22;2.03;;;37.00;99.90;;;;;;5054354;29;20041;-61
2022/06/16 10:59:28;;;;;;;3.50;2.03;;;37.70;99.90;;;;;;5041655;29;20051;-61
2022/06/16 11:02:22;;;;;;;3.30;1.77;;;37.80;99.90;;;;;;5041858;29;20040;-64
2022/06/16 11:05:11;;;;;;;2.22;2.05;;;37.90;99.90;;;;;;5084693;28;20136;-63
2022/06/16 11:07:50;;;;;;;2.22;2.03;;;37.90;99.90;;;;;;5080893;29;20286;-62
2022/06/16 11:10:34;;;;;;;2.15;1.95;;;38.80;99.90;;;;;;5096969;29;20484;-62
2022/06/16 11:13:16;;;;;;;1.83;1.73;;;39.30;99.90;;;;;;5097665;29;20344;-61
2022/06/16 11:15:55;;;;;;;2.10;1.90;;;39.30;99.90;;;;;;5096867;29;20357;-63
2022/06/16 11:18:36;;;;;;;1.98;1.88;;;38.70;99.90;;;;;;5110222;28;20145;-62
2022/06/16 11:21:29;;;;;;;1.98;1.83;;;37.50;99.90;;;;;;5171291;28;20042;-62
2022/06/16 11:24:13;;;;;;;2.10;1.90;;;37.90;99.90;;;;;;5152498;28;20045;-61
2022/06/16 11:26:46;;;;;;;2.05;1.95;;;38.50;99.90;;;;;;5157987;28;20038;-63
2022/06/16 11:29:33;;;;;;;2.25;2.00;;;38.10;99.90;;;;;;5159445;28;20022;-61
2022/06/16 11:32:28;;;;;;;3.42;1.85;;;37.90;99.90;;;;;;5175677;28;20038;-61
2022/06/16 11:35:02;;;;;;;2.05;1.90;;;37.00;99.90;;;;;;5159043;28;20365;-62
2022/06/16 11:38:14;;;;;;;4.85;2.70;;;38.20;99.90;;;;;;5160428;28;20449;-62
2022/06/16 11:40:59;;;;;;;1.88;1.77;;;38.20;99.90;;;;;;5157864;28;20145;-62
2022/06/16 11:43:58;;;;;;;2.92;2.00;;;38.80;99.90;;;;;;5164779;28;20046;-62
2022/06/16 11:46:50;;;;;;;3.47;2.70;;;39.50;99.90;;;;;;5147081;28;20036;-61
2022/06/16 11:50:03;;;;;;;1.80;1.70;;;40.40;99.90;;;;;;5158110;28;20030;-62
2022/06/16 11:52:59;;;;;;;1.83;1.67;;;41.10;99.90;;;;;;5156811;28;20038;-64
2022/06/16 11:56:09;;;;;;;7.38;2.72;;;38.50;99.90;;;;;;5159465;28;20026;-60
2022/06/16 11:59:20;;;;;;;3.05;2.30;;;38.50;99.90;;;;;;5159274;28;20315;-60
2022/06/16 12:02:06;;;;;;;2.13;1.92;;;39.20;99.90;;;;;;5158645;28;20030;-63
2022/06/16 12:05:28;;;;;;;2.03;1.83;;;38.90;99.90;;;;;;5167767;28;20049;-62
2022/06/16 12:08:30;;;;;;;1.73;1.63;;;38.60;99.90;;;;;;5148131;28;20046;-62
2022/06/16 12:11:17;;;;;;;2.17;1.85;;;40.80;99.90;;;;;;5159779;28;20039;-63
2022/06/16 12:14:04;;;;;;;2.63;2.13;;;42.00;99.90;;;;;;5171755;28;20025;-61
2022/06/16 12:17:14;;;;;;;2.55;2.10;;;41.40;99.90;;;;;;5144379;28;20268;-61
2022/06/16 12:20:12;;;;;;;2.38;2.17;;;41.30;99.90;;;;;;5156859;28;20393;-61
2022/06/16 12:22:53;;;;;;;3.25;1.80;;;40.50;99.90;;;;;;5167600;28;20042;-62
2022/06/16 12:25:49;;;;;;;1.90;1.80;;;41.10;99.90;;;;;;5173366;28;20042;-63
2022/06/16 12:28:37;;;;;;;2.10;1.90;;;41.00;99.90;;;;;;5157964;28;20034;-62
2022/06/16 12:31:52;;;;;;;1.83;1.73;;;40.40;99.90;;;;;;5157803;28;20451;-63
2022/06/16 12:35:18;;;;;;;1.98;1.85;;;40.60;99.90;;;;;;5156705;28;20030;-63
2022/06/16 12:38:04;;;;;;;1.85;1.75;;;41.00;99.90;;;;;;5135319;28;20039;-63
2022/06/16 12:40:55;;;;;;;2.15;1.95;;;39.90;99.90;;;;;;5116149;28;20047;-63
2022/06/16 12:43:47;;;;;;;1.80;1.70;;;40.00;99.90;;;;;;5119531;28;20285;-62
2022/06/16 12:46:31;;;;;;;3.00;2.17;;;40.20;99.90;;;;;;5135446;28;20038;-63
2022/06/16 12:49:13;;;;;;;3.20;1.85;;;39.70;99.90;;;;;;5134264;28;20054;-65
2022/06/16 12:51:55;;;;;;;2.42;1.77;;;39.20;99.90;;;;;;5118303;28;20267;-61
2022/06/16 12:54:54;;;;;;;2.85;2.65;;;38.40;99.90;;;;;;5114201;28;20039;-61
2022/06/16 12:57:37;;;;;;;2.47;1.80;;;38.30;99.90;;;;;;5131417;28;20035;-63
2022/06/16 13:00:15;;;;;;;1.93;1.83;;;38.20;99.90;;;;;;5131664;28;20038;-63
2022/06/16 13:03:00;;;;;;;2.05;1.80;;;38.30;99.90;;;;;;5134080;28;20031;-62
2022/06/16 13:05:34;;;;;;;1.80;1.70;;;38.90;99.90;;;;;;5108743;28;20248;-62
2022/06/16 13:08:10;;;;;;;3.47;2.45;;;39.80;99.90;;;;;;5117063;28;20039;-62
2022/06/16 13:10:49;;;;;;;1.90;1.80;;;40.40;99.90;;;;;;5118589;28;20031;-62
2022/06/16 13:13:30;;;;;;;2.13;1.85;;;40.50;99.90;;;;;;5136697;28;20034;-62
2022/06/16 13:16:05;;;;;;;2.28;2.00;;;41.00;99.90;;;;;;5168376;28;20203;-61
2022/06/16 13:19:07;;;;;;;2.95;1.98;;;39.30;99.90;;;;;;5168636;28;20316;-61
2022/06/16 13:21:59;;;;;;;2.03;1.85;;;38.30;99.90;;;;;;5149134;28;20038;-61
2022/06/16 13:24:42;;;;;;;2.22;2.03;;;37.10;99.90;;;;;;5148904;28;20342;-63
2022/06/16 13:27:29;;;;;;;3.38;2.20;;;35.50;99.90;;;;;;5163880;28;20057;-62
2022/06/16 13:30:30;;;;;;;2.20;2.00;;;34.20;99.90;;;;;;5164009;28;20026;-63
2022/06/16 13:33:24;;;;;;;2.33;2.13;;;34.40;99.90;;;;;;5160910;28;20039;-63
2022/06/16 13:36:15;;;;;;;2.40;2.20;;;34.20;99.90;;;;;;5166287;28;20023;-62
2022/06/16 13:38:54;;;;;;;1.95;1.85;;;33.90;99.90;;;;;;5173069;28;20037;-61
2022/06/16 13:41:40;;;;;;;2.10;1.90;;;34.30;99.90;;;;;;5177346;28;20044;-61
2022/06/16 13:44:19;;;;;;;2.45;2.08;;;34.50;99.90;;;;;;5160692;28;20036;-62
2022/06/16 13:47:02;;;;;;;2.35;2.15;;;34.70;99.90;;;;;;5161184;28;20034;-63
2022/06/16 13:49:49;;;;;;;1.98;1.70;;;34.40;99.90;;;;;;5159581;28;20437;-63
2022/06/16 13:52:28;;;;;;;2.15;1.92;;;34.20;99.90;;;;;;5176788;28;20042;-62
2022/06/16 13:55:36;;;;;;;2.22;2.03;;;33.60;99.90;;;;;;5152387;28;20215;-60
2022/06/16 13:58:18;;;;;;;3.28;1.90;;;33.10;99.90;;;;;;5160111;28;20030;-62
2022/06/16 14:01:24;;;;;;;2.15;1.88;;;32.90;99.90;;;;;;5161023;28;20041;-62
2022/06/16 14:04:06;;;;;;;2.65;2.45;;;32.70;99.90;;;;;;5160009;28;20031;-64
2022/06/16 14:06:43;;;;;;;5.35;2.33;;;32.10;99.90;;;;;;5148338;28;20053;-62
2022/06/16 14:09:29;;;;;;;2.30;2.10;;;31.20;99.90;;;;;;5174425;28;20037;-60
2022/06/16 14:12:06;;;;;;;2.05;1.85;;;31.00;99.90;;;;;;5173885;28;20215;-62
2022/06/16 14:14:55;;;;;;;2.80;1.70;;;30.60;99.90;;;;;;5170432;28;20041;-61
2022/06/16 14:17:42;;;;;;;2.70;2.50;;;30.40;99.90;;;;;;5161817;28;20033;-63
2022/06/16 14:20:26;;;;;;;2.55;1.88;;;30.60;99.90;;;;;;5160833;28;20049;-61
2022/06/16 14:23:16;;;;;;;3.05;2.03;;;30.40;99.90;;;;;;5175175;28;20022;-60
2022/06/16 14:26:03;;;;;;;2.88;2.30;;;29.80;99.90;;;;;;5173809;28;20329;-61
2022/06/16 14:28:39;;;;;;;3.17;2.00;;;28.80;99.90;;;;;;5178382;28;20277;-61
2022/06/16 14:31:38;;;;;;;2.55;2.35;;;28.80;99.90;;;;;;5175334;28;20028;-60